TimeCET,TemperatureF,Dew PointF,Humidity,Sea Level PressureIn,VisibilityMPH,Wind Direction,Wind SpeedMPH,Gust SpeedMPH,PrecipitationIn,Events,Conditions,WindDirDegrees,DateUTC
12:55 AM,23.0,19.4,86,29.80,-9999.0,SE,9.2,-,N/A,,Clear,130,2013-03-22 23:55:00
1:00 AM,22,20,87,,6,SE,9.2,,,,,130,2013-03-23 00:00:00
3:55 AM,21.2,17.6,86,29.80,-9999.0,NNW,3.5,-,N/A,,Clear,340,2013-03-23 02:55:00
4:00 AM,22,17,75,,6,NNW,3.5,,,,,340,2013-03-23 03:00:00
4:55 AM,21.2,15.8,80,29.77,-9999.0,ESE,4.6,-,N/A,,Clear,110,2013-03-23 03:55:00
5:55 AM,21.2,19.4,93,29.77,-9999.0,SSE,3.5,-,N/A,,Clear,150,2013-03-23 04:55:00
6:55 AM,21.2,17.6,86,29.77,-9999.0,North,1.2,-,N/A,,Clear,360,2013-03-23 05:55:00
7:00 AM,21,17,80,,12,North,1.2,,,,Partly Cloudy,0,2013-03-23 06:00:00
7:55 AM,23.0,17.6,80,29.77,-9999.0,North,2.3,-,N/A,,Clear,350,2013-03-23 06:55:00
8:55 AM,23.0,17.6,80,29.77,-9999.0,North,4.6,-,N/A,,Clear,350,2013-03-23 07:55:00
9:55 AM,24.8,19.4,80,29.77,6.2,ESE,4.6,-,N/A,,Partly Cloudy,110,2013-03-23 08:55:00
10:00 AM,25,19,69,,12,ESE,4.6,,,,Scattered Clouds,110,2013-03-23 09:00:00
10:55 AM,28.4,19.4,69,29.77,6.2,SE,6.9,-,N/A,,Partly Cloudy,140,2013-03-23 09:55:00
11:55 AM,28.4,19.4,69,29.77,6.2,ESE,6.9,-,N/A,,Scattered Clouds,120,2013-03-23 10:55:00
1:00 PM,30,20,55,,12,SE,12.7,,,,Partly Cloudy,130,2013-03-23 12:00:00
1:55 PM,30.2,21.2,69,29.77,6.2,SE,13.8,-,N/A,,Mostly Cloudy,130,2013-03-23 12:55:00
2:55 PM,30.2,21.2,69,29.77,6.2,SE,11.5,-,N/A,,Mostly Cloudy,130,2013-03-23 13:55:00
3:55 PM,30.2,21.2,69,29.77,6.2,SE,9.2,-,N/A,,Mostly Cloudy,130,2013-03-23 14:55:00
4:00 PM,29,21,63,,12,SE,9.2,,,,Mostly Cloudy,130,2013-03-23 15:00:00
4:55 PM,28.4,21.2,74,29.77,6.2,SE,15.0,-,N/A,,Overcast,130,2013-03-23 15:55:00
5:55 PM,26.6,23.0,86,29.77,6.2,SE,10.4,-,N/A,,Overcast,130,2013-03-23 16:55:00
6:55 PM,24.8,23.0,93,29.77,6.2,ESE,9.2,-,N/A,,Overcast,120,2013-03-23 17:55:00
7:00 PM,25,23,88,,6,ESE,9.2,,,,Overcast,120,2013-03-23 18:00:00
10:00 PM,24,22,91,,0,SE,11.5,,,Fog,Heavy Fog,130,2013-03-23 21:00:00